Camden Point, MO

10:40 AM CST on December 19, 2014 (GMT -0600)
Clinton Estates | Change Station
CLOSE
Current Station
Personal Weather Station
Location: Trimble, MO
Elevation: 975 ft
Nearby Weather Stations

Elev 975 ft 39.47 °N, 94.58 °W | Updated 6 seconds ago

Overcast
Overcast
31.4 °F
Feels Like 31 °F
N
3.0
Wind Variable Wind from SSE
Gusts 6.0 mph

Today
High -- | Low -- °F
--% Chance of Precip.
Yesterday
High -- | Low -- °F
Precip. -- in
7:34 AM 4:57 PM
Waning Crescent, 7% visible
Pressure 30.31 in
Visibility 5.0 miles
Clouds Overcast 400 ft
Windchill 31 °F
Dew Point 30 °F
Humidity 94%
Rainfall 0.00 in
Snow Depth Not available.
UV 0 out of 12
Pollen .10 out of 12
Air Quality Not available.
Flu Activity Not available.
METAR KMCI 191553Z COR 15005KT 5SM BR OVC004 M01/M02 A3028 RMK AO2 SLP263 DZE50 P0000 T10111017 $

More Conditions Fewer Conditions

Pressure 30.31 in
Visibility 5.0 miles
Clouds Overcast 400 ft
Windchill 31 °F
Dew Point 30 °F
Humidity 94%
Rainfall 0.00 in
Snow Depth Not available.
UV 0 out of 12
Pollen .10 out of 12
Air Quality Not available.
Flu Activity Not available.
METAR KMCI 191553Z COR 15005KT 5SM BR OVC004 M01/M02 A3028 RMK AO2 SLP263 DZE50 P0000 T10111017 $

More Conditions Fewer Conditions

10-Day Weather Forecast

Almanac

Astronomy

Dec. 19, 2014 Rise Set
Actual Time
Civil Twilight
Nautical Twilight
Astronomical Twilight
Moon
Length of Visible Light
Length of Day
Tomorrow will be .
, % of the Moon is Illuminated

Today's Extremes

State Highs State Lows

Community

WunderPhotos

Upload Photos

1,779,005 photos uploaded!

WunderBlogs® & News

Nearby

Air Quality

  Air Quality AQ Index Pollutant
Not available.

Snow Depth

Station Depth Elevation

Earthquake Activity

City Distance Mag. Time & Date
Minimum magnitude displayed is 2.5.

Coastal Water Temperatures

Place Temperature

Nearby Weather Stations